sensor_id;sensor_type;location;lat;lon;timestamp;temperature;humidity
26270;DHT22;15937;50.612;6.656;2024-02-14T00:01:36;7.70;99.90
26270;DHT22;15937;50.612;6.656;2024-02-14T00:05:38;7.60;99.90
26270;DHT22;15937;50.612;6.656;2024-02-14T00:09:41;7.60;99.90
26270;DHT22;15937;50.612;6.656;2024-02-14T00:13:44;7.60;99.90
26270;DHT22;15937;50.612;6.656;2024-02-14T00:17:46;7.60;99.90
26270;DHT22;15937;50.612;6.656;2024-02-14T00:21:47;7.60;99.90
26270;DHT22;15937;50.612;6.656;2024-02-14T00:25:49;7.60;99.90
26270;DHT22;15937;50.612;6.656;2024-02-14T00:29:52;7.60;99.90
26270;DHT22;15937;50.612;6.656;2024-02-14T00:33:56;7.60;99.90
26270;DHT22;15937;50.612;6.656;2024-02-14T00:37:58;7.60;99.90
26270;DHT22;15937;50.612;6.656;2024-02-14T00:42:02;7.60;99.90
26270;DHT22;15937;50.612;6.656;2024-02-14T00:46:04;7.60;99.90
26270;DHT22;15937;50.612;6.656;2024-02-14T00:50:07;7.70;99.90
26270;DHT22;15937;50.612;6.656;2024-02-14T00:54:09;7.60;99.90
26270;DHT22;15937;50.612;6.656;2024-02-14T00:58:11;7.60;99.90
26270;DHT22;15937;50.612;6.656;2024-02-14T01:02:14;7.60;99.90
26270;DHT22;15937;50.612;6.656;2024-02-14T01:06:16;7.70;99.90
26270;DHT22;15937;50.612;6.656;2024-02-14T01:10:18;7.70;99.90
26270;DHT22;15937;50.612;6.656;2024-02-14T01:14:20;7.70;99.90
26270;DHT22;15937;50.612;6.656;2024-02-14T01:20:11;7.80;99.90
26270;DHT22;15937;50.612;6.656;2024-02-14T01:24:14;7.80;99.90
26270;DHT22;15937;50.612;6.656;2024-02-14T01:28:18;7.80;99.90
26270;DHT22;15937;50.612;6.656;2024-02-14T01:32:20;7.90;99.90
26270;DHT22;15937;50.612;6.656;2024-02-14T01:36:23;7.90;99.90
26270;DHT22;15937;50.612;6.656;2024-02-14T01:40:25;7.90;99.90
26270;DHT22;15937;50.612;6.656;2024-02-14T01:44:27;7.90;99.90
26270;DHT22;15937;50.612;6.656;2024-02-14T01:48:29;7.90;99.90
26270;DHT22;15937;50.612;6.656;2024-02-14T01:52:31;8.00;99.90
26270;DHT22;15937;50.612;6.656;2024-02-14T01:56:33;7.90;99.90
26270;DHT22;15937;50.612;6.656;2024-02-14T02:00:35;7.90;99.90
26270;DHT22;15937;50.612;6.656;2024-02-14T02:04:37;7.90;99.90
26270;DHT22;15937;50.612;6.656;2024-02-14T02:08:44;7.90;99.90
26270;DHT22;15937;50.612;6.656;2024-02-14T02:12:46;7.90;99.90
26270;DHT22;15937;50.612;6.656;2024-02-14T02:16:49;7.90;99.90
26270;DHT22;15937;50.612;6.656;2024-02-14T02:20:51;8.00;99.90
26270;DHT22;15937;50.612;6.656;2024-02-14T02:24:53;8.00;99.90
26270;DHT22;15937;50.612;6.656;2024-02-14T02:28:55;7.90;99.90
26270;DHT22;15937;50.612;6.656;2024-02-14T02:32:57;8.00;99.90
26270;DHT22;15937;50.612;6.656;2024-02-14T02:37:00;7.90;99.90
26270;DHT22;15937;50.612;6.656;2024-02-14T02:41:03;7.90;99.90
26270;DHT22;15937;50.612;6.656;2024-02-14T02:45:09;7.90;99.90
26270;DHT22;15937;50.612;6.656;2024-02-14T02:49:13;7.90;99.90
26270;DHT22;15937;50.612;6.656;2024-02-14T02:53:16;7.90;99.90
26270;DHT22;15937;50.612;6.656;2024-02-14T02:57:18;7.90;99.90
26270;DHT22;15937;50.612;6.656;2024-02-14T03:01:20;7.90;99.90
26270;DHT22;15937;50.612;6.656;2024-02-14T03:05:25;7.90;99.90
26270;DHT22;15937;50.612;6.656;2024-02-14T03:09:27;8.00;99.90
26270;DHT22;15937;50.612;6.656;2024-02-14T03:13:32;8.00;99.90
26270;DHT22;15937;50.612;6.656;2024-02-14T03:17:34;8.10;99.90
26270;DHT22;15937;50.612;6.656;2024-02-14T03:21:36;8.10;99.90
26270;DHT22;15937;50.612;6.656;2024-02-14T03:25:38;8.10;99.90
26270;DHT22;15937;50.612;6.656;2024-02-14T03:29:40;8.10;99.90
26270;DHT22;15937;50.612;6.656;2024-02-14T03:33:42;8.10;99.90
26270;DHT22;15937;50.612;6.656;2024-02-14T03:37:46;8.10;99.90
26270;DHT22;15937;50.612;6.656;2024-02-14T03:41:51;8.10;99.90
26270;DHT22;15937;50.612;6.656;2024-02-14T03:45:53;8.10;99.90
26270;DHT22;15937;50.612;6.656;2024-02-14T03:49:56;8.10;99.90
26270;DHT22;15937;50.612;6.656;2024-02-14T03:53:58;8.10;99.90
26270;DHT22;15937;50.612;6.656;2024-02-14T03:58:00;8.10;99.90
26270;DHT22;15937;50.612;6.656;2024-02-14T04:02:02;8.10;99.90
26270;DHT22;15937;50.612;6.656;2024-02-14T04:06:05;8.00;99.90
26270;DHT22;15937;50.612;6.656;2024-02-14T04:10:08;8.00;99.90
26270;DHT22;15937;50.612;6.656;2024-02-14T04:14:10;8.10;99.90
26270;DHT22;15937;50.612;6.656;2024-02-14T04:18:13;8.00;99.90
26270;DHT22;15937;50.612;6.656;2024-02-14T04:22:16;8.00;99.90
26270;DHT22;15937;50.612;6.656;2024-02-14T04:26:21;8.00;99.90
26270;DHT22;15937;50.612;6.656;2024-02-14T04:30:24;8.10;99.90
26270;DHT22;15937;50.612;6.656;2024-02-14T04:34:27;8.00;99.90
26270;DHT22;15937;50.612;6.656;2024-02-14T04:38:29;8.10;99.90
26270;DHT22;15937;50.612;6.656;2024-02-14T04:42:32;8.10;99.90
26270;DHT22;15937;50.612;6.656;2024-02-14T04:46:35;8.10;99.90
26270;DHT22;15937;50.612;6.656;2024-02-14T04:50:37;8.10;99.90
26270;DHT22;15937;50.612;6.656;2024-02-14T04:54:39;8.10;99.90
26270;DHT22;15937;50.612;6.656;2024-02-14T04:58:41;8.10;99.90
26270;DHT22;15937;50.612;6.656;2024-02-14T05:02:44;8.00;99.90
26270;DHT22;15937;50.612;6.656;2024-02-14T05:06:46;8.00;99.90
26270;DHT22;15937;50.612;6.656;2024-02-14T05:10:50;8.10;99.90
26270;DHT22;15937;50.612;6.656;2024-02-14T05:14:52;8.10;99.90
26270;DHT22;15937;50.612;6.656;2024-02-14T05:18:54;8.20;99.90
26270;DHT22;15937;50.612;6.656;2024-02-14T05:22:56;8.20;99.90
26270;DHT22;15937;50.612;6.656;2024-02-14T05:26:58;8.20;99.90
26270;DHT22;15937;50.612;6.656;2024-02-14T05:31:00;8.20;99.90
26270;DHT22;15937;50.612;6.656;2024-02-14T05:35:02;8.20;99.90
26270;DHT22;15937;50.612;6.656;2024-02-14T05:39:08;8.20;99.90
26270;DHT22;15937;50.612;6.656;2024-02-14T05:43:10;8.20;99.90
26270;DHT22;15937;50.612;6.656;2024-02-14T05:47:12;8.20;99.90
26270;DHT22;15937;50.612;6.656;2024-02-14T05:51:14;8.20;99.90
26270;DHT22;15937;50.612;6.656;2024-02-14T05:55:16;8.10;99.90
26270;DHT22;15937;50.612;6.656;2024-02-14T05:59:18;8.10;99.90
26270;DHT22;15937;50.612;6.656;2024-02-14T06:03:20;8.10;99.90
26270;DHT22;15937;50.612;6.656;2024-02-14T06:07:21;8.10;99.90
26270;DHT22;15937;50.612;6.656;2024-02-14T06:11:24;8.10;99.90
26270;DHT22;15937;50.612;6.656;2024-02-14T06:15:26;8.10;99.90
26270;DHT22;15937;50.612;6.656;2024-02-14T06:19:28;8.10;99.90
26270;DHT22;15937;50.612;6.656;2024-02-14T06:23:30;8.10;99.90
26270;DHT22;15937;50.612;6.656;2024-02-14T06:27:32;8.20;99.90
26270;DHT22;15937;50.612;6.656;2024-02-14T06:31:34;8.20;99.90
26270;DHT22;15937;50.612;6.656;2024-02-14T06:35:36;8.20;99.90
26270;DHT22;15937;50.612;6.656;2024-02-14T06:39:38;8.30;99.90
26270;DHT22;15937;50.612;6.656;2024-02-14T06:43:41;8.30;99.90
26270;DHT22;15937;50.612;6.656;2024-02-14T06:47:43;8.30;99.90
26270;DHT22;15937;50.612;6.656;2024-02-14T06:51:45;8.40;99.90
26270;DHT22;15937;50.612;6.656;2024-02-14T06:55:47;8.40;99.90
26270;DHT22;15937;50.612;6.656;2024-02-14T06:59:49;8.40;99.90
26270;DHT22;15937;50.612;6.656;2024-02-14T07:03:51;8.40;99.90
26270;DHT22;15937;50.612;6.656;2024-02-14T07:07:55;8.50;99.90
26270;DHT22;15937;50.612;6.656;2024-02-14T07:11:57;8.50;99.90
26270;DHT22;15937;50.612;6.656;2024-02-14T07:16:01;8.50;99.90
26270;DHT22;15937;50.612;6.656;2024-02-14T07:20:03;8.60;99.90
26270;DHT22;15937;50.612;6.656;2024-02-14T07:24:06;8.60;99.90
26270;DHT22;15937;50.612;6.656;2024-02-14T07:28:08;8.70;99.90
26270;DHT22;15937;50.612;6.656;2024-02-14T07:32:10;8.70;99.90
26270;DHT22;15937;50.612;6.656;2024-02-14T07:36:12;8.70;99.90
26270;DHT22;15937;50.612;6.656;2024-02-14T07:40:14;8.70;99.90
26270;DHT22;15937;50.612;6.656;2024-02-14T07:44:19;8.70;99.90
26270;DHT22;15937;50.612;6.656;2024-02-14T07:48:21;8.80;99.90
26270;DHT22;15937;50.612;6.656;2024-02-14T07:52:24;8.80;99.90
26270;DHT22;15937;50.612;6.656;2024-02-14T07:56:27;8.80;99.90
26270;DHT22;15937;50.612;6.656;2024-02-14T08:00:29;8.90;99.90
26270;DHT22;15937;50.612;6.656;2024-02-14T08:04:33;9.00;99.90
26270;DHT22;15937;50.612;6.656;2024-02-14T08:08:34;9.20;99.90
26270;DHT22;15937;50.612;6.656;2024-02-14T08:12:37;9.30;99.90
26270;DHT22;15937;50.612;6.656;2024-02-14T08:16:39;9.30;99.90
26270;DHT22;15937;50.612;6.656;2024-02-14T08:20:41;9.40;99.90
26270;DHT22;15937;50.612;6.656;2024-02-14T08:24:43;9.40;99.90
26270;DHT22;15937;50.612;6.656;2024-02-14T08:28:45;9.40;99.90
26270;DHT22;15937;50.612;6.656;2024-02-14T08:32:47;9.40;99.90
26270;DHT22;15937;50.612;6.656;2024-02-14T08:36:49;9.50;99.90
26270;DHT22;15937;50.612;6.656;2024-02-14T08:40:51;9.60;99.90
26270;DHT22;15937;50.612;6.656;2024-02-14T08:44:53;9.60;99.90
26270;DHT22;15937;50.612;6.656;2024-02-14T08:48:55;9.70;99.90
26270;DHT22;15937;50.612;6.656;2024-02-14T08:52:57;9.70;99.90
26270;DHT22;15937;50.612;6.656;2024-02-14T08:56:59;9.80;99.90
26270;DHT22;15937;50.612;6.656;2024-02-14T09:01:01;9.80;99.90
26270;DHT22;15937;50.612;6.656;2024-02-14T09:05:15;9.90;99.90
26270;DHT22;15937;50.612;6.656;2024-02-14T09:09:18;9.90;99.90
26270;DHT22;15937;50.612;6.656;2024-02-14T09:13:21;10.00;99.90
26270;DHT22;15937;50.612;6.656;2024-02-14T09:17:23;10.10;99.90
26270;DHT22;15937;50.612;6.656;2024-02-14T09:21:25;10.20;99.90
26270;DHT22;15937;50.612;6.656;2024-02-14T09:25:30;10.20;99.90
26270;DHT22;15937;50.612;6.656;2024-02-14T09:29:32;10.30;99.90
26270;DHT22;15937;50.612;6.656;2024-02-14T09:33:34;10.30;99.90
26270;DHT22;15937;50.612;6.656;2024-02-14T09:37:37;10.40;99.90
26270;DHT22;15937;50.612;6.656;2024-02-14T09:41:42;10.30;99.90
26270;DHT22;15937;50.612;6.656;2024-02-14T09:45:46;10.40;99.90
26270;DHT22;15937;50.612;6.656;2024-02-14T09:49:48;10.40;99.90
26270;DHT22;15937;50.612;6.656;2024-02-14T09:53:53;10.50;99.90
26270;DHT22;15937;50.612;6.656;2024-02-14T09:57:57;10.50;99.90
26270;DHT22;15937;50.612;6.656;2024-02-14T10:02:00;10.50;99.90
26270;DHT22;15937;50.612;6.656;2024-02-14T10:06:03;10.60;99.90
26270;DHT22;15937;50.612;6.656;2024-02-14T10:10:07;10.70;99.90
26270;DHT22;15937;50.612;6.656;2024-02-14T10:14:10;10.90;99.90
26270;DHT22;15937;50.612;6.656;2024-02-14T10:18:14;10.90;99.90
26270;DHT22;15937;50.612;6.656;2024-02-14T10:22:17;10.90;99.90
26270;DHT22;15937;50.612;6.656;2024-02-14T10:26:19;11.00;99.90
26270;DHT22;15937;50.612;6.656;2024-02-14T10:30:22;11.10;99.90
26270;DHT22;15937;50.612;6.656;2024-02-14T10:34:25;11.10;99.90
26270;DHT22;15937;50.612;6.656;2024-02-14T10:38:31;11.10;99.90
26270;DHT22;15937;50.612;6.656;2024-02-14T10:42:35;11.40;99.90
26270;DHT22;15937;50.612;6.656;2024-02-14T10:46:37;11.50;99.90
26270;DHT22;15937;50.612;6.656;2024-02-14T10:50:41;11.40;99.90
26270;DHT22;15937;50.612;6.656;2024-02-14T10:54:53;11.40;99.90
26270;DHT22;15937;50.612;6.656;2024-02-14T10:58:59;11.40;99.90
26270;DHT22;15937;50.612;6.656;2024-02-14T11:03:01;11.40;99.90
26270;DHT22;15937;50.612;6.656;2024-02-14T11:07:09;11.40;99.90
26270;DHT22;15937;50.612;6.656;2024-02-14T11:11:12;11.30;99.90
26270;DHT22;15937;50.612;6.656;2024-02-14T11:15:23;11.40;99.90
26270;DHT22;15937;50.612;6.656;2024-02-14T11:19:31;11.40;99.90
26270;DHT22;15937;50.612;6.656;2024-02-14T11:23:39;11.40;99.90
26270;DHT22;15937;50.612;6.656;2024-02-14T11:27:47;11.40;99.90
26270;DHT22;15937;50.612;6.656;2024-02-14T11:32:00;11.40;99.90
26270;DHT22;15937;50.612;6.656;2024-02-14T11:36:10;11.40;99.90
26270;DHT22;15937;50.612;6.656;2024-02-14T11:40:12;11.40;99.90
26270;DHT22;15937;50.612;6.656;2024-02-14T11:44:15;11.30;99.90
26270;DHT22;15937;50.612;6.656;2024-02-14T11:48:21;11.30;99.90
26270;DHT22;15937;50.612;6.656;2024-02-14T11:52:25;11.40;99.90
26270;DHT22;15937;50.612;6.656;2024-02-14T11:56:33;11.30;99.90
26270;DHT22;15937;50.612;6.656;2024-02-14T12:00:40;11.40;99.90
26270;DHT22;15937;50.612;6.656;2024-02-14T12:04:44;11.40;99.90
26270;DHT22;15937;50.612;6.656;2024-02-14T12:08:47;11.40;99.90
26270;DHT22;15937;50.612;6.656;2024-02-14T12:12:49;11.40;99.90
26270;DHT22;15937;50.612;6.656;2024-02-14T12:16:56;11.50;99.90
26270;DHT22;15937;50.612;6.656;2024-02-14T12:21:05;11.50;99.90
26270;DHT22;15937;50.612;6.656;2024-02-14T12:25:09;11.50;99.90
26270;DHT22;15937;50.612;6.656;2024-02-14T12:29:16;11.50;99.90
26270;DHT22;15937;50.612;6.656;2024-02-14T12:33:19;11.60;99.90
26270;DHT22;15937;50.612;6.656;2024-02-14T12:37:21;11.50;99.90
26270;DHT22;15937;50.612;6.656;2024-02-14T12:41:23;11.50;99.90
26270;DHT22;15937;50.612;6.656;2024-02-14T12:45:27;11.50;99.90
26270;DHT22;15937;50.612;6.656;2024-02-14T12:49:29;11.50;99.90
26270;DHT22;15937;50.612;6.656;2024-02-14T12:53:33;11.60;99.90
26270;DHT22;15937;50.612;6.656;2024-02-14T12:57:35;11.50;99.90
26270;DHT22;15937;50.612;6.656;2024-02-14T13:01:37;11.60;99.90
26270;DHT22;15937;50.612;6.656;2024-02-14T13:05:40;11.60;99.90
26270;DHT22;15937;50.612;6.656;2024-02-14T13:09:42;11.50;99.90
26270;DHT22;15937;50.612;6.656;2024-02-14T13:13:46;11.50;99.90
26270;DHT22;15937;50.612;6.656;2024-02-14T13:17:47;11.60;99.90
26270;DHT22;15937;50.612;6.656;2024-02-14T13:21:51;11.60;99.90
26270;DHT22;15937;50.612;6.656;2024-02-14T13:25:53;11.60;99.90
26270;DHT22;15937;50.612;6.656;2024-02-14T13:29:55;11.60;99.90
26270;DHT22;15937;50.612;6.656;2024-02-14T13:33:59;11.70;99.90
26270;DHT22;15937;50.612;6.656;2024-02-14T13:38:02;11.90;99.90
26270;DHT22;15937;50.612;6.656;2024-02-14T13:42:05;11.90;99.90
26270;DHT22;15937;50.612;6.656;2024-02-14T13:46:08;12.00;99.90
26270;DHT22;15937;50.612;6.656;2024-02-14T13:50:11;12.00;99.90
26270;DHT22;15937;50.612;6.656;2024-02-14T13:54:14;11.90;99.90
26270;DHT22;15937;50.612;6.656;2024-02-14T13:58:16;12.00;99.90
26270;DHT22;15937;50.612;6.656;2024-02-14T14:02:19;12.00;99.90
26270;DHT22;15937;50.612;6.656;2024-02-14T14:06:24;12.00;99.90
26270;DHT22;15937;50.612;6.656;2024-02-14T14:10:27;12.10;99.90
26270;DHT22;15937;50.612;6.656;2024-02-14T14:14:30;12.10;99.90
26270;DHT22;15937;50.612;6.656;2024-02-14T14:18:35;12.10;99.90
26270;DHT22;15937;50.612;6.656;2024-02-14T14:22:37;12.20;99.90
26270;DHT22;15937;50.612;6.656;2024-02-14T14:26:40;12.20;99.90
26270;DHT22;15937;50.612;6.656;2024-02-14T14:30:42;12.20;99.90
26270;DHT22;15937;50.612;6.656;2024-02-14T14:34:49;12.30;99.90
26270;DHT22;15937;50.612;6.656;2024-02-14T14:38:52;12.30;99.90
26270;DHT22;15937;50.612;6.656;2024-02-14T15:00:03;12.20;99.90
26270;DHT22;15937;50.612;6.656;2024-02-14T15:04:08;12.30;99.90
26270;DHT22;15937;50.612;6.656;2024-02-14T15:08:10;12.20;99.90
26270;DHT22;15937;50.612;6.656;2024-02-14T15:12:12;12.20;99.90
26270;DHT22;15937;50.612;6.656;2024-02-14T15:16:17;12.20;99.90
26270;DHT22;15937;50.612;6.656;2024-02-14T15:20:19;12.20;99.90
26270;DHT22;15937;50.612;6.656;2024-02-14T15:24:21;12.20;99.90
26270;DHT22;15937;50.612;6.656;2024-02-14T15:28:25;12.30;99.90
26270;DHT22;15937;50.612;6.656;2024-02-14T15:32:28;12.20;99.90
26270;DHT22;15937;50.612;6.656;2024-02-14T15:36:49;12.20;99.90
26270;DHT22;15937;50.612;6.656;2024-02-14T15:40:54;12.20;99.90
26270;DHT22;15937;50.612;6.656;2024-02-14T15:45:00;12.20;99.90
26270;DHT22;15937;50.612;6.656;2024-02-14T15:49:02;12.20;99.90
26270;DHT22;15937;50.612;6.656;2024-02-14T15:53:05;12.20;99.90
26270;DHT22;15937;50.612;6.656;2024-02-14T15:57:07;12.20;99.90
26270;DHT22;15937;50.612;6.656;2024-02-14T16:01:10;12.20;99.90
26270;DHT22;15937;50.612;6.656;2024-02-14T16:05:12;12.20;99.90
26270;DHT22;15937;50.612;6.656;2024-02-14T16:09:14;12.10;99.90
26270;DHT22;15937;50.612;6.656;2024-02-14T16:13:16;12.10;99.90
26270;DHT22;15937;50.612;6.656;2024-02-14T16:17:19;12.10;99.90
26270;DHT22;15937;50.612;6.656;2024-02-14T16:21:21;12.20;99.90
26270;DHT22;15937;50.612;6.656;2024-02-14T16:25:23;12.10;99.90
26270;DHT22;15937;50.612;6.656;2024-02-14T16:29:25;12.10;99.90
26270;DHT22;15937;50.612;6.656;2024-02-14T16:33:27;12.10;99.90
26270;DHT22;15937;50.612;6.656;2024-02-14T16:37:29;12.10;99.90
26270;DHT22;15937;50.612;6.656;2024-02-14T16:41:32;12.00;99.90
26270;DHT22;15937;50.612;6.656;2024-02-14T16:45:34;12.00;99.90
26270;DHT22;15937;50.612;6.656;2024-02-14T16:49:36;11.90;99.90
26270;DHT22;15937;50.612;6.656;2024-02-14T16:53:40;11.90;99.90
26270;DHT22;15937;50.612;6.656;2024-02-14T16:57:41;11.90;99.90
26270;DHT22;15937;50.612;6.656;2024-02-14T17:01:43;11.90;99.90
26270;DHT22;15937;50.612;6.656;2024-02-14T17:05:46;11.90;99.90
26270;DHT22;15937;50.612;6.656;2024-02-14T17:09:48;11.80;99.90
26270;DHT22;15937;50.612;6.656;2024-02-14T17:13:51;11.70;99.90
26270;DHT22;15937;50.612;6.656;2024-02-14T17:17:56;11.70;99.90
26270;DHT22;15937;50.612;6.656;2024-02-14T17:21:58;11.70;99.90
26270;DHT22;15937;50.612;6.656;2024-02-14T17:26:01;11.70;99.90
26270;DHT22;15937;50.612;6.656;2024-02-14T17:30:04;11.70;99.90
26270;DHT22;15937;50.612;6.656;2024-02-14T17:34:11;11.60;99.90
26270;DHT22;15937;50.612;6.656;2024-02-14T17:38:12;11.70;99.90
26270;DHT22;15937;50.612;6.656;2024-02-14T17:42:16;11.70;99.90
26270;DHT22;15937;50.612;6.656;2024-02-14T17:46:19;11.60;99.90
26270;DHT22;15937;50.612;6.656;2024-02-14T17:50:23;11.70;99.90
26270;DHT22;15937;50.612;6.656;2024-02-14T17:54:25;11.70;99.90
26270;DHT22;15937;50.612;6.656;2024-02-14T17:58:28;11.70;99.90
26270;DHT22;15937;50.612;6.656;2024-02-14T18:02:32;11.60;99.90
26270;DHT22;15937;50.612;6.656;2024-02-14T18:06:35;11.70;99.90
26270;DHT22;15937;50.612;6.656;2024-02-14T18:10:37;11.70;99.90
26270;DHT22;15937;50.612;6.656;2024-02-14T18:14:39;11.70;99.90
26270;DHT22;15937;50.612;6.656;2024-02-14T18:18:42;11.70;99.90
26270;DHT22;15937;50.612;6.656;2024-02-14T18:22:44;11.60;99.90
26270;DHT22;15937;50.612;6.656;2024-02-14T18:26:46;11.60;99.90
26270;DHT22;15937;50.612;6.656;2024-02-14T18:30:48;11.60;99.90
26270;DHT22;15937;50.612;6.656;2024-02-14T18:34:50;11.60;99.90
26270;DHT22;15937;50.612;6.656;2024-02-14T18:38:52;11.60;99.90
26270;DHT22;15937;50.612;6.656;2024-02-14T18:42:54;11.60;99.90
26270;DHT22;15937;50.612;6.656;2024-02-14T18:46:56;11.50;99.90
26270;DHT22;15937;50.612;6.656;2024-02-14T18:50:59;11.50;99.90
26270;DHT22;15937;50.612;6.656;2024-02-14T18:55:01;11.50;99.90
26270;DHT22;15937;50.612;6.656;2024-02-14T18:59:03;11.50;99.90
26270;DHT22;15937;50.612;6.656;2024-02-14T19:03:06;11.50;99.90
26270;DHT22;15937;50.612;6.656;2024-02-14T19:07:08;11.50;99.90
26270;DHT22;15937;50.612;6.656;2024-02-14T19:11:12;11.50;99.90
26270;DHT22;15937;50.612;6.656;2024-02-14T19:15:15;11.50;99.90
26270;DHT22;15937;50.612;6.656;2024-02-14T19:19:17;11.50;99.90
26270;DHT22;15937;50.612;6.656;2024-02-14T19:23:20;11.50;99.90
26270;DHT22;15937;50.612;6.656;2024-02-14T19:27:22;11.50;99.90
26270;DHT22;15937;50.612;6.656;2024-02-14T19:31:24;11.50;99.90
26270;DHT22;15937;50.612;6.656;2024-02-14T19:35:26;11.50;99.90
26270;DHT22;15937;50.612;6.656;2024-02-14T19:39:28;11.50;99.90
26270;DHT22;15937;50.612;6.656;2024-02-14T19:43:33;11.50;99.90
26270;DHT22;15937;50.612;6.656;2024-02-14T19:47:41;11.50;99.90
26270;DHT22;15937;50.612;6.656;2024-02-14T19:51:43;11.50;99.90
26270;DHT22;15937;50.612;6.656;2024-02-14T19:55:45;11.50;99.90
26270;DHT22;15937;50.612;6.656;2024-02-14T19:59:47;11.50;99.90
26270;DHT22;15937;50.612;6.656;2024-02-14T20:03:50;11.50;99.90
26270;DHT22;15937;50.612;6.656;2024-02-14T20:07:52;11.50;99.90
26270;DHT22;15937;50.612;6.656;2024-02-14T20:11:54;11.50;99.90
26270;DHT22;15937;50.612;6.656;2024-02-14T20:15:58;11.50;99.90
26270;DHT22;15937;50.612;6.656;2024-02-14T20:20:02;11.50;99.90
26270;DHT22;15937;50.612;6.656;2024-02-14T20:24:06;11.50;99.90
26270;DHT22;15937;50.612;6.656;2024-02-14T20:28:11;11.50;99.90
26270;DHT22;15937;50.612;6.656;2024-02-14T20:32:14;11.50;99.90
26270;DHT22;15937;50.612;6.656;2024-02-14T20:36:17;11.40;99.90
26270;DHT22;15937;50.612;6.656;2024-02-14T20:40:20;11.50;99.90
26270;DHT22;15937;50.612;6.656;2024-02-14T20:44:22;11.40;99.90
26270;DHT22;15937;50.612;6.656;2024-02-14T20:48:24;11.50;99.90
26270;DHT22;15937;50.612;6.656;2024-02-14T20:52:26;11.40;99.90
26270;DHT22;15937;50.612;6.656;2024-02-14T20:56:29;11.50;99.90
26270;DHT22;15937;50.612;6.656;2024-02-14T21:00:31;11.50;99.90
26270;DHT22;15937;50.612;6.656;2024-02-14T21:04:35;11.50;99.90
26270;DHT22;15937;50.612;6.656;2024-02-14T21:08:37;11.50;99.90
26270;DHT22;15937;50.612;6.656;2024-02-14T21:12:40;11.50;99.90
26270;DHT22;15937;50.612;6.656;2024-02-14T21:16:41;11.50;99.90
26270;DHT22;15937;50.612;6.656;2024-02-14T21:20:43;11.60;99.90
26270;DHT22;15937;50.612;6.656;2024-02-14T21:24:46;11.50;99.90
26270;DHT22;15937;50.612;6.656;2024-02-14T21:28:48;11.60;99.90
26270;DHT22;15937;50.612;6.656;2024-02-14T21:32:51;11.60;99.90
26270;DHT22;15937;50.612;6.656;2024-02-14T21:36:54;11.60;99.90
26270;DHT22;15937;50.612;6.656;2024-02-14T21:40:58;11.60;99.90
26270;DHT22;15937;50.612;6.656;2024-02-14T21:45:00;11.60;99.90
26270;DHT22;15937;50.612;6.656;2024-02-14T21:49:06;11.60;99.90
26270;DHT22;15937;50.612;6.656;2024-02-14T21:53:09;11.60;99.90
26270;DHT22;15937;50.612;6.656;2024-02-14T21:57:11;11.60;99.90
26270;DHT22;15937;50.612;6.656;2024-02-14T22:01:13;11.60;99.90
26270;DHT22;15937;50.612;6.656;2024-02-14T22:05:15;11.60;99.90
26270;DHT22;15937;50.612;6.656;2024-02-14T22:09:19;11.60;99.90
26270;DHT22;15937;50.612;6.656;2024-02-14T22:13:22;11.50;99.90
26270;DHT22;15937;50.612;6.656;2024-02-14T22:17:25;11.60;99.90
26270;DHT22;15937;50.612;6.656;2024-02-14T22:21:27;11.50;99.90
26270;DHT22;15937;50.612;6.656;2024-02-14T22:25:30;11.50;99.90
26270;DHT22;15937;50.612;6.656;2024-02-14T22:29:32;11.50;99.90
26270;DHT22;15937;50.612;6.656;2024-02-14T22:33:34;11.50;99.90
26270;DHT22;15937;50.612;6.656;2024-02-14T22:37:36;11.50;99.90
26270;DHT22;15937;50.612;6.656;2024-02-14T22:41:39;11.50;99.90
26270;DHT22;15937;50.612;6.656;2024-02-14T22:45:42;11.50;99.90
26270;DHT22;15937;50.612;6.656;2024-02-14T22:49:44;11.50;99.90
26270;DHT22;15937;50.612;6.656;2024-02-14T22:53:48;11.50;99.90
26270;DHT22;15937;50.612;6.656;2024-02-14T22:57:50;11.50;99.90
26270;DHT22;15937;50.612;6.656;2024-02-14T23:01:52;11.50;99.90
26270;DHT22;15937;50.612;6.656;2024-02-14T23:05:54;11.50;99.90
26270;DHT22;15937;50.612;6.656;2024-02-14T23:09:56;11.50;99.90
26270;DHT22;15937;50.612;6.656;2024-02-14T23:13:59;11.60;99.90
26270;DHT22;15937;50.612;6.656;2024-02-14T23:18:02;11.60;99.90
26270;DHT22;15937;50.612;6.656;2024-02-14T23:22:04;11.60;99.90
26270;DHT22;15937;50.612;6.656;2024-02-14T23:26:06;11.60;99.90
26270;DHT22;15937;50.612;6.656;2024-02-14T23:30:08;11.60;99.90
26270;DHT22;15937;50.612;6.656;2024-02-14T23:34:11;11.60;99.90
26270;DHT22;15937;50.612;6.656;2024-02-14T23:38:13;11.60;99.90
26270;DHT22;15937;50.612;6.656;2024-02-14T23:42:15;11.60;99.90
26270;DHT22;15937;50.612;6.656;2024-02-14T23:46:17;11.60;99.90
26270;DHT22;15937;50.612;6.656;2024-02-14T23:50:19;11.60;99.90
26270;DHT22;15937;50.612;6.656;2024-02-14T23:54:21;11.50;99.90
26270;DHT22;15937;50.612;6.656;2024-02-14T23:58:23;11.50;99.90
